createdAt,value
2019-02-28T00:00:11.327Z,71.33
2019-02-28T00:01:11.675Z,72.05
2019-02-28T00:02:10.577Z,72.36
2019-02-28T00:03:10.605Z,71.64
2019-02-28T00:04:10.543Z,71.84
2019-02-28T00:05:10.545Z,72.36
2019-02-28T00:06:12.557Z,72.05
2019-02-28T00:07:10.907Z,72.50
2019-02-28T00:08:10.521Z,72.71
2019-02-28T00:09:10.502Z,73.25
2019-02-28T00:10:10.512Z,73.02
2019-02-28T00:11:10.482Z,72.71
2019-02-28T00:12:13.520Z,71.78
2019-02-28T00:13:10.462Z,72.57
2019-02-28T00:14:10.955Z,71.74
2019-02-28T00:15:10.437Z,71.74
2019-02-28T00:16:10.455Z,71.95
2019-02-28T00:17:10.412Z,71.84
2019-02-28T00:18:10.484Z,72.05
2019-02-28T00:19:10.392Z,71.84
2019-02-28T00:20:10.371Z,72.08
2019-02-28T00:21:10.790Z,72.39
2019-02-28T00:22:11.352Z,72.71
2019-02-28T00:23:10.357Z,73.12
2019-02-28T00:24:10.600Z,73.15
2019-02-28T00:25:10.380Z,72.71
2019-02-28T00:26:11.578Z,73.02
2019-02-28T00:27:10.303Z,72.60
2019-02-28T00:28:11.662Z,72.60
2019-02-28T00:29:10.283Z,72.19
2019-02-28T00:30:10.341Z,72.19
2019-02-28T00:31:14.374Z,72.19
2019-02-28T00:32:11.266Z,72.08
2019-02-28T00:33:10.238Z,72.71
2019-02-28T00:34:10.228Z,72.43
2019-02-28T00:35:13.498Z,72.74
2019-02-28T00:36:10.356Z,72.64
2019-02-28T00:37:10.262Z,72.71
2019-02-28T00:38:10.201Z,72.74
2019-02-28T00:39:10.181Z,72.71
2019-02-28T00:40:10.175Z,72.78
2019-02-28T00:41:10.308Z,73.02
2019-02-28T00:42:10.544Z,72.67
2019-02-28T00:43:10.196Z,72.05
2019-02-28T00:44:10.128Z,72.26
2019-02-28T00:45:10.123Z,72.05
2019-02-28T00:46:11.030Z,72.05
2019-02-28T00:47:11.045Z,72.05
2019-02-28T00:48:10.136Z,71.02
2019-02-28T00:49:10.588Z,71.64
2019-02-28T00:50:10.057Z,71.43
2019-02-28T00:51:10.084Z,71.74
2019-02-28T00:52:10.090Z,71.12
2019-02-28T00:53:10.033Z,71.12
2019-02-28T00:54:10.322Z,71.43
2019-02-28T00:55:10.023Z,71.98
2019-02-28T00:56:10.396Z,71.74
2019-02-28T00:57:09.986Z,71.12
2019-02-28T00:58:10.573Z,72.36
2019-02-28T00:59:09.993Z,72.05
2019-02-28T01:00:10.032Z,71.33
2019-02-28T01:01:11.499Z,71.64
2019-02-28T01:02:09.932Z,71.74
2019-02-28T01:03:10.445Z,72.05
2019-02-28T01:04:09.936Z,72.29
2019-02-28T01:05:09.900Z,72.71
2019-02-28T01:06:10.666Z,72.81
2019-02-28T01:07:09.900Z,72.16
2019-02-28T01:08:09.874Z,72.29
2019-02-28T01:09:09.868Z,72.39
2019-02-28T01:10:10.311Z,72.81
2019-02-28T01:11:10.388Z,72.33
2019-02-28T01:12:19.391Z,72.43
2019-02-28T01:13:09.823Z,72.64
2019-02-28T01:14:09.810Z,73.15
2019-02-28T01:15:09.999Z,72.74
2019-02-28T01:16:09.841Z,73.25
2019-02-28T01:17:11.998Z,72.94
2019-02-28T01:18:09.808Z,72.60
2019-02-28T01:19:10.215Z,72.71
2019-02-28T01:20:15.092Z,72.60
2019-02-28T01:21:10.739Z,72.47
2019-02-28T01:22:09.768Z,72.47
2019-02-28T01:23:09.713Z,72.36
2019-02-28T01:24:13.048Z,72.05
2019-02-28T01:25:09.688Z,72.36
2019-02-28T01:26:11.765Z,71.95
2019-02-28T01:27:09.682Z,71.33
2019-02-28T01:28:09.662Z,71.33
2019-02-28T01:29:09.685Z,72.05
2019-02-28T01:30:09.695Z,72.05
2019-02-28T01:31:11.581Z,72.36
2019-02-28T01:32:09.622Z,71.95
2019-02-28T01:33:09.626Z,71.84
2019-02-28T01:34:09.611Z,71.95
2019-02-28T01:35:09.612Z,72.05
2019-02-28T01:36:12.213Z,72.47
2019-02-28T01:37:10.897Z,72.26
2019-02-28T01:38:09.561Z,72.05
2019-02-28T01:39:10.529Z,72.57
2019-02-28T01:40:09.566Z,73.08
2019-02-28T01:41:11.193Z,72.78
2019-02-28T01:42:09.592Z,72.57
2019-02-28T01:43:09.546Z,72.78
2019-02-28T01:44:09.895Z,73.08
2019-02-28T01:45:09.889Z,72.16
2019-02-28T01:46:09.522Z,72.67
2019-02-28T01:47:09.471Z,72.57
2019-02-28T01:48:09.530Z,72.98
2019-02-28T01:49:09.445Z,72.95
2019-02-28T01:50:09.448Z,72.95
2019-02-28T01:51:09.452Z,73.39
2019-02-28T01:52:10.073Z,73.29
2019-02-28T01:53:09.414Z,73.26
2019-02-28T01:54:09.467Z,73.47
2019-02-28T01:55:09.395Z,73.67
2019-02-28T01:56:09.368Z,73.57
2019-02-28T01:57:10.056Z,73.26
2019-02-28T01:58:09.380Z,73.26
2019-02-28T01:59:09.346Z,73.36
2019-02-28T02:00:09.376Z,73.36
2019-02-28T02:01:09.325Z,73.50
2019-02-28T02:02:09.397Z,72.85
2019-02-28T02:03:10.185Z,72.85
2019-02-28T02:04:09.296Z,73.05
2019-02-28T02:05:09.269Z,73.16
2019-02-28T02:06:09.330Z,73.29
2019-02-28T02:07:09.260Z,73.39
2019-02-28T02:08:09.291Z,73.60
2019-02-28T02:09:11.060Z,73.91
2019-02-28T02:10:09.220Z,74.22
2019-02-28T02:11:09.212Z,73.26
2019-02-28T02:12:09.255Z,73.71
2019-02-28T02:13:09.194Z,74.12
2019-02-28T02:14:10.984Z,73.47
2019-02-28T02:15:09.481Z,73.36
2019-02-28T02:16:09.197Z,73.36
2019-02-28T02:17:09.154Z,73.98
2019-02-28T02:18:10.024Z,74.02
2019-02-28T02:19:09.133Z,73.29
2019-02-28T02:20:10.025Z,73.71
2019-02-28T02:21:09.097Z,73.36
2019-02-28T02:22:10.109Z,73.36
2019-02-28T02:23:09.128Z,73.39
2019-02-28T02:24:09.367Z,73.19
2019-02-28T02:25:09.072Z,73.39
2019-02-28T02:26:11.294Z,73.47
2019-02-28T02:27:09.365Z,73.67
2019-02-28T02:28:09.025Z,73.71
2019-02-28T02:29:09.553Z,73.71
2019-02-28T02:30:15.256Z,73.91
2019-02-28T02:31:10.062Z,73.81
2019-02-28T02:32:09.018Z,73.81
2019-02-28T02:33:13.527Z,74.22
2019-02-28T02:34:10.305Z,74.22
2019-02-28T02:35:08.963Z,74.95
2019-02-28T02:36:09.159Z,74.63
2019-02-28T02:37:08.946Z,74.77
2019-02-28T02:38:08.930Z,74.74
2019-02-28T02:39:08.928Z,74.67
2019-02-28T02:40:08.928Z,75.15
2019-02-28T02:41:09.206Z,74.95
2019-02-28T02:42:11.295Z,74.98
2019-02-28T02:43:08.895Z,75.26
2019-02-28T02:44:08.869Z,75.15
2019-02-28T02:45:08.854Z,74.74
2019-02-28T02:46:08.848Z,74.63
2019-02-28T02:47:08.852Z,74.74
2019-02-28T02:48:09.226Z,74.84
2019-02-28T02:49:08.887Z,74.95
2019-02-28T02:50:08.811Z,74.84
2019-02-28T02:51:11.328Z,74.63
2019-02-28T02:52:08.829Z,74.74
2019-02-28T02:53:08.787Z,74.26
2019-02-28T02:54:08.817Z,75.19
2019-02-28T02:55:09.088Z,74.95
2019-02-28T02:56:08.776Z,75.36
2019-02-28T02:57:08.742Z,75.40
2019-02-28T02:58:08.727Z,75.40
2019-02-28T02:59:09.548Z,75.81
2019-02-28T03:01:34.261Z,74.95
2019-02-28T03:02:34.383Z,74.84
2019-02-28T03:03:33.914Z,75.40
2019-02-28T03:04:33.903Z,75.05
2019-02-28T03:05:35.946Z,75.29
2019-02-28T03:06:33.882Z,75.40
2019-02-28T03:07:34.248Z,75.70
2019-02-28T03:08:36.330Z,75.29
2019-02-28T03:09:33.857Z,75.81
2019-02-28T03:10:33.849Z,75.81
2019-02-28T03:11:33.846Z,75.60
2019-02-28T03:12:33.815Z,75.91
2019-02-28T03:13:42.272Z,75.70
2019-02-28T03:14:34.802Z,75.57
2019-02-28T03:15:33.787Z,75.40
2019-02-28T03:16:34.643Z,75.29
2019-02-28T03:17:33.783Z,75.09
2019-02-28T03:18:33.759Z,75.15
2019-02-28T03:19:34.680Z,75.19
2019-02-28T03:20:34.076Z,74.88
2019-02-28T03:21:33.730Z,74.91
2019-02-28T03:22:33.725Z,74.91
2019-02-28T03:23:37.843Z,74.77
2019-02-28T03:24:34.743Z,75.19
2019-02-28T03:25:33.679Z,74.88
2019-02-28T03:26:33.668Z,75.09
2019-02-28T03:27:33.998Z,74.98
2019-02-28T03:28:33.668Z,74.91
2019-02-28T03:29:33.643Z,75.53
2019-02-28T03:30:34.065Z,75.43
2019-02-28T03:31:33.629Z,76.36
2019-02-28T03:32:40.409Z,75.53
2019-02-28T03:33:34.628Z,75.60
2019-02-28T03:34:33.874Z,76.01
2019-02-28T03:35:43.274Z,75.84
2019-02-28T03:36:34.650Z,75.84
2019-02-28T03:37:34.602Z,75.22
2019-02-28T03:38:33.538Z,75.12
2019-02-28T03:39:33.561Z,75.12
2019-02-28T03:40:39.812Z,75.32
2019-02-28T03:41:34.824Z,75.84
2019-02-28T03:42:33.555Z,75.84
2019-02-28T03:43:33.518Z,75.63
2019-02-28T03:44:33.480Z,75.43
2019-02-28T03:45:35.083Z,75.84
2019-02-28T03:46:33.452Z,76.26
2019-02-28T03:47:33.458Z,76.46
2019-02-28T03:48:35.916Z,76.40
2019-02-28T03:49:33.431Z,76.19
2019-02-28T03:50:33.411Z,76.71
2019-02-28T03:51:33.441Z,76.98
2019-02-28T03:52:33.436Z,76.26
2019-02-28T03:53:33.402Z,76.05
2019-02-28T03:54:33.892Z,76.15
2019-02-28T03:55:39.846Z,75.84
2019-02-28T03:56:34.359Z,76.26
2019-02-28T03:57:33.403Z,76.67
2019-02-28T03:58:33.328Z,76.46
2019-02-28T03:59:33.326Z,76.78
2019-02-28T04:00:34.230Z,76.36
2019-02-28T04:01:33.628Z,76.15
2019-02-28T04:02:33.309Z,75.46
2019-02-28T04:03:34.633Z,75.46
2019-02-28T04:04:33.269Z,76.23
2019-02-28T04:05:33.278Z,75.92
2019-02-28T04:06:39.581Z,75.60
2019-02-28T04:07:34.743Z,75.50
2019-02-28T04:08:33.547Z,76.12
2019-02-28T04:09:33.207Z,75.92
2019-02-28T04:10:33.209Z,75.50
2019-02-28T04:11:33.188Z,75.09
2019-02-28T04:12:33.566Z,76.32
2019-02-28T04:13:33.172Z,76.43
2019-02-28T04:14:34.392Z,76.84
2019-02-28T04:15:33.454Z,76.74
2019-02-28T04:16:33.152Z,76.84
2019-02-28T04:17:33.142Z,76.74
2019-02-28T04:18:33.190Z,76.43
2019-02-28T04:19:33.142Z,76.95
2019-02-28T04:20:37.337Z,76.64
2019-02-28T04:21:33.106Z,77.26
2019-02-28T04:22:33.363Z,76.95
2019-02-28T04:23:36.108Z,78.33
2019-02-28T04:24:33.173Z,78.44
2019-02-28T04:25:33.049Z,78.33
2019-02-28T04:26:33.022Z,78.54
2019-02-28T04:27:33.039Z,78.33
2019-02-28T04:28:33.027Z,77.81
2019-02-28T04:29:33.332Z,77.81
2019-02-28T04:30:33.098Z,77.81
2019-02-28T04:31:32.991Z,78.44
2019-02-28T04:32:32.991Z,78.40
2019-02-28T04:33:37.648Z,78.30
2019-02-28T04:34:33.957Z,78.40
2019-02-28T04:35:32.938Z,77.88
2019-02-28T04:36:35.841Z,78.09
2019-02-28T04:37:32.933Z,77.36
2019-02-28T04:38:32.945Z,77.36
2019-02-28T04:39:32.898Z,76.74
2019-02-28T04:40:32.898Z,76.64
2019-02-28T04:41:33.584Z,77.47
2019-02-28T04:42:32.911Z,77.40
2019-02-28T04:43:33.163Z,77.40
2019-02-28T04:44:32.841Z,78.23
2019-02-28T04:45:32.861Z,78.54
2019-02-28T04:46:32.822Z,78.02
2019-02-28T04:47:32.815Z,78.02
2019-02-28T04:48:32.868Z,78.54
2019-02-28T04:49:32.816Z,78.12
2019-02-28T04:50:33.087Z,78.44
2019-02-28T04:51:32.788Z,78.33
2019-02-28T04:52:32.772Z,78.23
2019-02-28T04:53:32.753Z,78.33
2019-02-28T04:54:32.792Z,77.81
2019-02-28T04:55:34.250Z,77.81
2019-02-28T04:56:32.720Z,78.44
2019-02-28T04:57:33.082Z,78.54
2019-02-28T04:58:32.702Z,78.33
2019-02-28T04:59:34.372Z,78.12
2019-02-28T05:00:32.760Z,78.75
2019-02-28T05:01:32.667Z,78.75
2019-02-28T05:02:32.666Z,78.33
2019-02-28T05:03:32.642Z,78.33
2019-02-28T05:04:33.230Z,77.92
2019-02-28T05:05:32.620Z,77.92
2019-02-28T05:06:32.700Z,78.12
2019-02-28T05:07:32.606Z,78.54
2019-02-28T05:08:32.605Z,78.02
2019-02-28T05:09:32.592Z,78.33
2019-02-28T05:10:32.567Z,78.02
2019-02-28T05:11:33.690Z,78.30
2019-02-28T05:12:32.613Z,78.54
2019-02-28T05:13:32.552Z,78.44
2019-02-28T05:14:32.530Z,78.64
2019-02-28T05:15:37.406Z,78.33
2019-02-28T05:16:33.530Z,78.54
2019-02-28T05:17:32.507Z,78.89
2019-02-28T05:18:32.827Z,78.96
2019-02-28T05:19:35.700Z,78.96
2019-02-28T05:20:32.914Z,78.96
2019-02-28T05:21:32.455Z,77.95
2019-02-28T05:22:32.441Z,78.27
2019-02-28T05:23:35.783Z,77.85
2019-02-28T05:24:32.767Z,78.64
2019-02-28T05:25:32.880Z,77.85
2019-02-28T05:26:32.401Z,78.16
2019-02-28T05:27:35.518Z,78.47
2019-02-28T05:28:33.423Z,78.27
2019-02-28T05:29:32.399Z,78.06
2019-02-28T05:30:32.410Z,78.16
2019-02-28T05:31:32.669Z,78.54
2019-02-28T05:32:35.644Z,78.64
2019-02-28T05:33:32.329Z,78.64
2019-02-28T05:34:33.062Z,78.85
2019-02-28T05:35:32.369Z,78.78
2019-02-28T05:36:34.664Z,79.20
2019-02-28T05:37:33.281Z,79.41
2019-02-28T05:38:32.739Z,79.41
2019-02-28T05:39:32.297Z,78.89
2019-02-28T05:40:32.262Z,79.82
2019-02-28T05:41:32.250Z,79.51
2019-02-28T05:42:32.279Z,78.78
2019-02-28T05:43:32.907Z,77.95
2019-02-28T05:44:32.247Z,77.64
2019-02-28T05:45:32.212Z,77.23
2019-02-28T05:46:35.082Z,76.81
2019-02-28T05:47:33.103Z,76.81
2019-02-28T05:48:32.243Z,76.54
2019-02-28T05:49:32.163Z,78.34
2019-02-28T05:50:32.476Z,78.13
2019-02-28T05:51:32.143Z,78.89
2019-02-28T05:52:33.758Z,78.78
2019-02-28T05:53:32.138Z,78.89
2019-02-28T05:54:32.147Z,79.61
2019-02-28T05:55:32.580Z,79.61
2019-02-28T05:56:33.313Z,79.41
2019-02-28T05:57:32.080Z,79.41
2019-02-28T05:58:32.087Z,79.20
2019-02-28T05:59:32.088Z,79.10
2019-02-28T06:00:33.445Z,79.06
2019-02-28T06:01:32.060Z,78.96
2019-02-28T06:02:32.027Z,79.61
2019-02-28T06:03:32.467Z,79.79
2019-02-28T06:04:34.142Z,79.38
2019-02-28T06:05:33.126Z,79.48
2019-02-28T06:06:34.617Z,79.06
2019-02-28T06:07:32.012Z,78.86
2019-02-28T06:08:38.682Z,78.75
2019-02-28T06:09:33.607Z,78.86
2019-02-28T06:10:31.956Z,78.96
2019-02-28T06:11:35.541Z,78.92
2019-02-28T06:12:31.919Z,78.23
2019-02-28T06:13:31.926Z,78.09
2019-02-28T06:14:31.927Z,78.61
2019-02-28T06:15:36.931Z,78.86
2019-02-28T06:16:32.050Z,78.44
2019-02-28T06:17:32.249Z,78.44
2019-02-28T06:18:33.576Z,78.55
2019-02-28T06:19:32.297Z,78.44
2019-02-28T06:20:31.958Z,78.23
2019-02-28T06:21:32.622Z,78.34
2019-02-28T06:22:36.240Z,78.75
2019-02-28T06:23:32.361Z,78.72
2019-02-28T06:24:31.795Z,78.41
2019-02-28T06:25:32.099Z,78.09
2019-02-28T06:26:33.001Z,78.92
2019-02-28T06:27:40.845Z,78.82
2019-02-28T06:28:32.817Z,78.51
2019-02-28T06:29:36.775Z,78.61
2019-02-28T06:30:33.507Z,78.41
2019-02-28T06:31:31.737Z,79.17
2019-02-28T06:32:32.040Z,79.13
2019-02-28T06:33:33.571Z,79.34
2019-02-28T06:34:33.345Z,79.24
2019-02-28T06:35:31.966Z,79.65
2019-02-28T06:36:33.012Z,79.10
2019-02-28T06:37:35.362Z,78.06
2019-02-28T06:38:33.181Z,78.16
2019-02-28T06:39:31.759Z,77.85
2019-02-28T06:40:33.010Z,78.16
2019-02-28T06:41:31.789Z,78.12
2019-02-28T06:42:33.670Z,78.44
2019-02-28T06:43:32.353Z,78.27
2019-02-28T06:44:34.493Z,78.54
2019-02-28T06:45:36.897Z,78.30
2019-02-28T06:46:33.741Z,77.22
2019-02-28T06:47:31.608Z,76.40
2019-02-28T06:48:32.542Z,76.29
2019-02-28T06:49:31.746Z,78.36
2019-02-28T06:50:44.659Z,79.02
2019-02-28T06:51:36.706Z,79.95
2019-02-28T06:52:33.725Z,79.64
2019-02-28T06:53:35.681Z,79.54
2019-02-28T06:54:32.805Z,79.54
2019-02-28T06:55:33.113Z,79.44
2019-02-28T06:56:33.447Z,79.74
2019-02-28T06:57:33.088Z,79.64
2019-02-28T06:58:33.958Z,80.78
2019-02-28T06:59:31.731Z,80.36
2019-02-28T07:00:33.151Z,80.57
2019-02-28T07:01:31.882Z,81.09
2019-02-28T07:02:32.223Z,81.09
2019-02-28T07:03:35.211Z,81.09
2019-02-28T07:04:55.195Z,80.26
2019-02-28T07:05:32.752Z,79.54
2019-02-28T07:06:35.722Z,78.75
2019-02-28T07:07:33.164Z,79.58
2019-02-28T07:08:32.075Z,79.78
2019-02-28T07:09:33.621Z,80.09
2019-02-28T07:10:31.622Z,80.30
2019-02-28T07:11:31.713Z,80.19
2019-02-28T07:12:33.106Z,80.05
2019-02-28T07:13:31.313Z,80.36
2019-02-28T07:14:31.267Z,80.26
2019-02-28T07:15:31.287Z,79.64
2019-02-28T07:16:34.660Z,79.64
2019-02-28T07:17:32.323Z,79.71
2019-02-28T07:18:33.506Z,79.60
2019-02-28T07:19:31.402Z,79.67
2019-02-28T07:20:34.539Z,79.47
2019-02-28T07:21:31.421Z,78.74
2019-02-28T07:22:31.396Z,78.91
2019-02-28T07:23:31.268Z,79.12
2019-02-28T07:24:31.181Z,79.08
2019-02-28T07:25:33.098Z,78.67
2019-02-28T07:26:31.156Z,78.36
2019-02-28T07:27:31.156Z,78.05
2019-02-28T07:28:36.279Z,78.15
2019-02-28T07:29:32.195Z,78.36
2019-02-28T07:30:31.117Z,78.36
2019-02-28T07:31:38.602Z,77.50
2019-02-28T07:32:34.279Z,78.01
2019-02-28T07:33:31.312Z,78.01
2019-02-28T07:34:32.078Z,77.25
2019-02-28T07:35:34.195Z,77.98
2019-02-28T07:36:32.324Z,77.98
2019-02-28T07:37:31.297Z,77.42
2019-02-28T07:38:36.241Z,77.56
2019-02-28T07:39:31.486Z,77.11
2019-02-28T07:40:33.261Z,76.39
2019-02-28T07:41:31.071Z,76.90
2019-02-28T07:42:33.748Z,76.90
2019-02-28T07:43:32.520Z,77.11
2019-02-28T07:44:33.986Z,77.22
2019-02-28T07:45:33.089Z,77.11
2019-02-28T07:46:31.977Z,76.53
2019-02-28T07:47:32.506Z,75.12
2019-02-28T07:48:31.687Z,73.19
2019-02-28T07:49:35.876Z,72.03
2019-02-28T07:50:32.562Z,71.17
2019-02-28T07:51:31.778Z,70.21
2019-02-28T07:52:33.480Z,70.83
2019-02-28T07:53:32.538Z,70.35
2019-02-28T07:54:31.785Z,69.90
2019-02-28T07:55:31.102Z,69.01
2019-02-28T07:56:31.311Z,69.39
2019-02-28T07:57:30.947Z,68.81
2019-02-28T07:58:33.454Z,68.57
2019-02-28T07:59:30.879Z,67.86
2019-02-28T08:00:30.793Z,67.21
2019-02-28T08:01:31.176Z,66.16
2019-02-28T08:02:35.727Z,66.67
2019-02-28T08:03:31.828Z,66.80
2019-02-28T08:04:32.025Z,66.67
2019-02-28T08:05:31.174Z,66.56
2019-02-28T08:06:30.717Z,66.81
2019-02-28T08:07:32.148Z,66.33
2019-02-28T08:08:33.178Z,67.08
2019-02-28T08:09:33.610Z,67.00
2019-02-28T08:10:52.295Z,67.96
2019-02-28T08:11:31.219Z,68.16
2019-02-28T08:12:31.413Z,68.27
2019-02-28T08:13:30.647Z,68.57
2019-02-28T08:14:30.628Z,68.37
2019-02-28T08:15:31.518Z,68.06
2019-02-28T08:16:33.989Z,68.57
2019-02-28T08:17:30.595Z,68.48
2019-02-28T08:18:31.673Z,68.68
2019-02-28T08:19:30.605Z,69.36
2019-02-28T08:20:33.942Z,70.39
2019-02-28T08:21:30.590Z,70.70
2019-02-28T08:22:31.380Z,71.55
2019-02-28T08:23:31.363Z,71.34
2019-02-28T08:24:30.531Z,71.96
2019-02-28T08:25:30.503Z,72.27
2019-02-28T08:26:30.503Z,72.92
2019-02-28T08:27:30.484Z,73.85
2019-02-28T08:28:35.484Z,73.26
2019-02-28T08:29:32.493Z,73.36
2019-02-28T08:30:30.459Z,73.88
2019-02-28T08:31:31.990Z,74.33
2019-02-28T08:32:30.450Z,74.95
2019-02-28T08:33:30.438Z,76.39
2019-02-28T08:34:30.681Z,76.59
2019-02-28T08:35:34.012Z,76.49
2019-02-28T08:36:31.523Z,76.18
2019-02-28T08:37:30.398Z,76.18
2019-02-28T08:38:34.269Z,76.28
2019-02-28T08:39:30.392Z,76.14
2019-02-28T08:40:30.598Z,75.94
2019-02-28T08:41:30.367Z,76.04
2019-02-28T08:42:30.405Z,76.35
2019-02-28T08:43:30.731Z,75.73
2019-02-28T08:44:30.323Z,76.35
2019-02-28T08:45:33.486Z,76.66
2019-02-28T08:46:30.428Z,75.63
2019-02-28T08:47:30.458Z,76.01
2019-02-28T08:48:34.817Z,75.70
2019-02-28T08:49:30.269Z,76.11
2019-02-28T08:50:30.584Z,76.28
2019-02-28T08:51:31.038Z,75.87
2019-02-28T08:52:30.303Z,76.07
2019-02-28T08:53:30.228Z,75.35
2019-02-28T08:54:30.234Z,75.97
2019-02-28T08:55:30.206Z,75.15
2019-02-28T08:56:32.262Z,75.04
2019-02-28T08:57:30.783Z,74.70
2019-02-28T08:58:30.224Z,74.80
2019-02-28T08:59:30.153Z,74.70
2019-02-28T09:00:32.613Z,74.60
2019-02-28T09:01:31.057Z,75.01
2019-02-28T09:02:31.029Z,74.26
2019-02-28T09:03:30.256Z,74.40
2019-02-28T09:04:40.797Z,75.21
2019-02-28T09:05:31.117Z,75.97
2019-02-28T09:06:30.119Z,75.87
2019-02-28T09:07:30.075Z,76.25
2019-02-28T09:08:31.038Z,76.45
2019-02-28T09:09:56.231Z,76.55
2019-02-28T09:10:30.108Z,75.73
2019-02-28T09:11:30.027Z,75.73
2019-02-28T09:12:33.287Z,74.87
2019-02-28T09:13:30.043Z,75.38
2019-02-28T09:14:30.029Z,75.38
2019-02-28T09:15:31.291Z,74.46
2019-02-28T09:16:30.322Z,74.43
2019-02-28T09:17:29.957Z,74.43
2019-02-28T09:18:29.956Z,74.22
2019-02-28T09:19:32.612Z,74.63
2019-02-28T09:20:30.989Z,74.22
2019-02-28T09:21:29.951Z,74.29
2019-02-28T09:22:29.936Z,73.68
2019-02-28T09:23:30.560Z,73.44
2019-02-28T09:24:29.911Z,73.06
2019-02-28T09:25:29.905Z,73.16
2019-02-28T09:26:31.275Z,73.23
2019-02-28T09:27:30.492Z,73.47
2019-02-28T09:28:30.239Z,73.02
2019-02-28T09:29:29.852Z,72.72
2019-02-28T09:30:30.588Z,72.41
2019-02-28T09:31:29.833Z,72.51
2019-02-28T09:32:29.848Z,73.57
2019-02-28T09:33:29.853Z,73.02
2019-02-28T09:34:31.417Z,73.47
2019-02-28T09:35:29.772Z,74.29
2019-02-28T09:36:29.783Z,73.78
2019-02-28T09:37:30.550Z,73.33
2019-02-28T09:38:29.752Z,73.23
2019-02-28T09:39:30.079Z,72.82
2019-02-28T09:40:30.617Z,72.82
2019-02-28T09:41:30.587Z,72.72
2019-02-28T09:42:29.692Z,73.02
2019-02-28T09:43:29.723Z,73.44
2019-02-28T09:44:31.400Z,73.23
2019-02-28T09:45:29.721Z,73.44
2019-02-28T09:46:29.656Z,73.64
2019-02-28T09:47:30.123Z,72.78
2019-02-28T09:48:30.697Z,72.17
2019-02-28T09:49:29.607Z,72.58
2019-02-28T09:50:29.614Z,72.14
2019-02-28T09:51:31.980Z,71.52
2019-02-28T09:52:29.621Z,71.22
2019-02-28T09:53:29.583Z,71.22
2019-02-28T09:54:30.483Z,71.42
2019-02-28T09:55:34.292Z,70.87
2019-02-28T09:56:30.613Z,70.67
2019-02-28T09:57:30.261Z,70.81
2019-02-28T09:58:30.079Z,70.47
2019-02-28T09:59:29.517Z,70.26
2019-02-28T10:00:29.512Z,70.23
2019-02-28T10:01:29.570Z,69.31
2019-02-28T10:02:29.637Z,69.07
2019-02-28T10:03:29.480Z,69.07
2019-02-28T10:04:30.537Z,68.76
2019-02-28T10:05:31.048Z,68.87
2019-02-28T10:06:29.475Z,68.42
2019-02-28T10:07:31.486Z,68.42
2019-02-28T10:08:29.515Z,67.68
2019-02-28T10:09:29.423Z,67.68
2019-02-28T10:10:29.379Z,67.50
2019-02-28T10:11:31.757Z,68.22
2019-02-28T10:12:29.368Z,68.76
2019-02-28T10:13:30.941Z,68.66
2019-02-28T10:14:29.807Z,68.84
2019-02-28T10:15:30.041Z,68.63
2019-02-28T10:16:29.351Z,68.73
2019-02-28T10:17:29.742Z,68.42
2019-02-28T10:18:29.306Z,68.73
2019-02-28T10:19:29.310Z,68.22
2019-02-28T10:20:29.343Z,68.01
2019-02-28T10:21:29.313Z,67.91
2019-02-28T10:22:29.424Z,68.52
2019-02-28T10:23:29.297Z,67.57
2019-02-28T10:24:31.517Z,67.37
2019-02-28T10:25:32.031Z,67.37
2019-02-28T10:26:30.509Z,67.57
2019-02-28T10:27:29.588Z,68.05
2019-02-28T10:28:29.203Z,67.65
2019-02-28T10:29:29.218Z,67.75
2019-02-28T10:30:32.097Z,67.65
2019-02-28T10:31:36.240Z,67.85
2019-02-28T10:32:30.207Z,67.03
2019-02-28T10:33:29.479Z,67.34
2019-02-28T10:34:29.294Z,66.59
2019-02-28T10:35:29.144Z,67.03
2019-02-28T10:36:29.147Z,67.13
2019-02-28T10:37:30.046Z,66.72
2019-02-28T10:38:29.441Z,66.31
2019-02-28T10:39:30.042Z,66.11
2019-02-28T10:40:30.037Z,66.28
2019-02-28T10:41:31.102Z,66.08
2019-02-28T10:42:29.051Z,66.08
2019-02-28T10:43:29.064Z,66.52
2019-02-28T10:44:30.730Z,66.62
2019-02-28T10:45:29.533Z,66.93
2019-02-28T10:46:29.015Z,66.72
2019-02-28T10:47:29.800Z,67.75
2019-02-28T10:48:29.510Z,67.75
2019-02-28T10:49:29.002Z,67.34
2019-02-28T10:50:32.100Z,67.34
2019-02-28T10:51:38.084Z,67.75
2019-02-28T10:52:30.653Z,67.85
2019-02-28T10:53:29.630Z,68.16
2019-02-28T10:54:28.928Z,68.02
2019-02-28T10:55:33.552Z,67.82
2019-02-28T10:56:31.722Z,67.71
2019-02-28T10:57:29.538Z,66.69
2019-02-28T10:58:29.362Z,66.69
2019-02-28T10:59:29.486Z,67.21
2019-02-28T11:00:29.500Z,68.12
2019-02-28T11:01:28.845Z,67.30
2019-02-28T11:02:28.888Z,67.92
2019-02-28T11:03:32.271Z,66.90
2019-02-28T11:04:33.571Z,66.39
2019-02-28T11:05:29.243Z,66.62
2019-02-28T11:06:29.120Z,65.91
2019-02-28T11:07:28.820Z,66.01
2019-02-28T11:08:28.808Z,66.21
2019-02-28T11:09:28.841Z,66.72
2019-02-28T11:10:28.932Z,66.42
2019-02-28T11:11:28.741Z,66.42
2019-02-28T11:12:28.832Z,66.01
2019-02-28T11:13:32.192Z,66.31
2019-02-28T11:14:28.761Z,66.59
2019-02-28T11:15:28.693Z,66.08
2019-02-28T11:16:28.676Z,66.49
2019-02-28T11:17:30.410Z,66.08
2019-02-28T11:18:28.683Z,66.08
2019-02-28T11:19:28.663Z,66.28
2019-02-28T11:20:28.866Z,66.59
2019-02-28T11:21:29.865Z,66.59
2019-02-28T11:22:28.635Z,65.06
2019-02-28T11:23:28.617Z,65.98
2019-02-28T11:24:29.135Z,65.57
2019-02-28T11:25:28.588Z,65.88
2019-02-28T11:26:29.690Z,64.75
2019-02-28T11:27:28.882Z,65.26
2019-02-28T11:28:29.337Z,65.26
2019-02-28T11:29:35.099Z,65.98
2019-02-28T11:30:28.763Z,65.06
2019-02-28T11:31:28.617Z,65.13
2019-02-28T11:32:29.337Z,65.13
2019-02-28T11:33:28.526Z,64.69
2019-02-28T11:34:28.498Z,60.72
2019-02-28T11:35:28.581Z,55.71
2019-02-28T11:36:30.488Z,54.92
2019-02-28T11:37:29.532Z,53.45
2019-02-28T11:38:28.457Z,51.88
2019-02-28T11:39:30.528Z,52.99
2019-02-28T11:40:29.476Z,55.10
2019-02-28T11:41:28.414Z,56.70
2019-02-28T11:42:29.004Z,57.26
2019-02-28T11:43:28.438Z,58.81
2019-02-28T11:44:28.399Z,59.25
2019-02-28T11:45:28.408Z,60.06
2019-02-28T11:46:28.358Z,61.54
2019-02-28T11:47:28.370Z,61.95
2019-02-28T11:48:28.856Z,61.65
2019-02-28T11:49:29.490Z,61.04
2019-02-28T11:50:28.313Z,60.70
2019-02-28T11:51:30.278Z,60.50
2019-02-28T11:52:28.286Z,60.60
2019-02-28T11:53:28.319Z,60.80
2019-02-28T11:54:28.336Z,60.30
2019-02-28T11:55:28.357Z,60.37
2019-02-28T11:56:28.811Z,59.53
2019-02-28T11:57:28.252Z,58.35
2019-02-28T11:58:30.369Z,57.31
2019-02-28T11:59:28.225Z,56.90
2019-02-28T12:00:28.273Z,57.31
2019-02-28T12:01:28.261Z,56.98
2019-02-28T12:02:28.283Z,56.37
2019-02-28T12:03:28.211Z,56.80
2019-02-28T12:04:28.237Z,58.58
2019-02-28T12:05:28.163Z,58.92
2019-02-28T12:06:28.159Z,59.45
2019-02-28T12:07:28.826Z,59.96
2019-02-28T12:08:29.044Z,60.03
2019-02-28T12:09:29.491Z,60.57
2019-02-28T12:10:28.126Z,60.14
2019-02-28T12:11:29.047Z,59.14
2019-02-28T12:12:28.079Z,59.93
2019-02-28T12:13:28.434Z,59.96
2019-02-28T12:14:29.299Z,60.47
2019-02-28T12:15:30.019Z,60.37
2019-02-28T12:16:28.062Z,60.70
2019-02-28T12:17:28.600Z,59.86
2019-02-28T12:18:28.541Z,59.53
2019-02-28T12:19:33.549Z,59.66
2019-02-28T12:20:28.008Z,59.45
2019-02-28T12:21:29.130Z,58.99
2019-02-28T12:22:28.096Z,57.95
2019-02-28T12:23:28.526Z,58.35
2019-02-28T12:24:29.453Z,58.69
2019-02-28T12:25:35.674Z,58.28
2019-02-28T12:26:28.048Z,58.61
2019-02-28T12:27:28.619Z,58.61
2019-02-28T12:28:29.387Z,59.32
2019-02-28T12:29:28.485Z,59.32
2019-02-28T12:30:29.568Z,58.61
2019-02-28T12:31:27.956Z,58.92
2019-02-28T12:32:27.891Z,58.35
2019-02-28T12:33:27.847Z,55.76
2019-02-28T12:34:28.915Z,55.50
2019-02-28T12:35:39.228Z,53.93
2019-02-28T12:36:31.715Z,53.96
2019-02-28T12:37:28.673Z,54.57
2019-02-28T12:38:30.811Z,54.00
2019-02-28T12:39:29.347Z,52.86
2019-02-28T12:40:28.998Z,52.66
2019-02-28T12:41:27.802Z,52.76
2019-02-28T12:42:28.277Z,53.75
2019-02-28T12:43:30.671Z,54.90
2019-02-28T12:44:29.317Z,55.50
2019-02-28T12:45:28.485Z,56.26
2019-02-28T12:46:31.782Z,55.30
2019-02-28T12:47:29.671Z,54.86
2019-02-28T12:48:27.697Z,55.07
2019-02-28T12:49:27.757Z,54.33
2019-02-28T12:50:29.479Z,53.67
2019-02-28T12:51:27.665Z,53.19
2019-02-28T12:52:27.705Z,54.33
2019-02-28T12:53:27.702Z,54.57